sensor_id;sensor_type;location;lat;lon;timestamp;pressure;altitude;pressure_sealevel;temperature;humidity
74552;BME280;63025;55.472;38.432;2023-07-29T00:00:58;99133.44;;;18.02;100.00
74552;BME280;63025;55.472;38.432;2023-07-29T00:03:26;99137.78;;;18.03;100.00
74552;BME280;63025;55.472;38.432;2023-07-29T00:05:52;99133.16;;;18.04;100.00
74552;BME280;63025;55.472;38.432;2023-07-29T00:08:18;99137.22;;;18.06;100.00
74552;BME280;63025;55.472;38.432;2023-07-29T00:10:43;99142.69;;;18.01;100.00
74552;BME280;63025;55.472;38.432;2023-07-29T00:13:09;99143.50;;;18.02;100.00
74552;BME280;63025;55.472;38.432;2023-07-29T00:15:35;99138.06;;;17.96;100.00
74552;BME280;63025;55.472;38.432;2023-07-29T00:18:01;99137.84;;;17.93;100.00
74552;BME280;63025;55.472;38.432;2023-07-29T00:20:27;99130.22;;;17.95;100.00
74552;BME280;63025;55.472;38.432;2023-07-29T00:22:52;99120.72;;;17.92;100.00
74552;BME280;63025;55.472;38.432;2023-07-29T00:25:21;99120.19;;;17.90;100.00
74552;BME280;63025;55.472;38.432;2023-07-29T00:27:47;99115.28;;;17.87;100.00
74552;BME280;63025;55.472;38.432;2023-07-29T00:30:13;99113.16;;;17.84;100.00
74552;BME280;63025;55.472;38.432;2023-07-29T00:32:39;99101.19;;;17.80;100.00
74552;BME280;63025;55.472;38.432;2023-07-29T00:35:06;99113.16;;;17.79;100.00
74552;BME280;63025;55.472;38.432;2023-07-29T00:37:32;99119.16;;;17.76;100.00
74552;BME280;63025;55.472;38.432;2023-07-29T00:39:58;99116.75;;;17.70;100.00
74552;BME280;63025;55.472;38.432;2023-07-29T00:42:24;99114.84;;;17.65;100.00
74552;BME280;63025;55.472;38.432;2023-07-29T00:44:50;99103.72;;;17.61;100.00
74552;BME280;63025;55.472;38.432;2023-07-29T00:47:16;99105.63;;;17.56;100.00
74552;BME280;63025;55.472;38.432;2023-07-29T00:49:46;99107.00;;;17.48;100.00
74552;BME280;63025;55.472;38.432;2023-07-29T00:52:12;99096.16;;;17.48;100.00
74552;BME280;63025;55.472;38.432;2023-07-29T00:54:39;99107.28;;;17.47;100.00
74552;BME280;63025;55.472;38.432;2023-07-29T00:57:06;99108.94;;;17.43;100.00
74552;BME280;63025;55.472;38.432;2023-07-29T00:59:35;99113.28;;;17.39;100.00
74552;BME280;63025;55.472;38.432;2023-07-29T01:02:01;99108.69;;;17.39;100.00
74552;BME280;63025;55.472;38.432;2023-07-29T01:04:29;99100.00;;;17.32;100.00
74552;BME280;63025;55.472;38.432;2023-07-29T01:09:44;99087.78;;;17.30;100.00
74552;BME280;63025;55.472;38.432;2023-07-29T01:12:29;99069.06;;;17.28;100.00
74552;BME280;63025;55.472;38.432;2023-07-29T01:15:08;99050.09;;;17.18;100.00
74552;BME280;63025;55.472;38.432;2023-07-29T01:17:46;99049.53;;;17.21;100.00
74552;BME280;63025;55.472;38.432;2023-07-29T01:20:16;99064.47;;;17.18;100.00
74552;BME280;63025;55.472;38.432;2023-07-29T01:22:43;99069.34;;;17.16;100.00
74552;BME280;63025;55.472;38.432;2023-07-29T01:25:10;99068.00;;;17.14;100.00
74552;BME280;63025;55.472;38.432;2023-07-29T01:27:36;99074.78;;;17.16;100.00
74552;BME280;63025;55.472;38.432;2023-07-29T01:30:03;99079.16;;;17.12;100.00
74552;BME280;63025;55.472;38.432;2023-07-29T01:35:49;99075.34;;;17.13;100.00
74552;BME280;63025;55.472;38.432;2023-07-29T01:38:29;99080.75;;;17.13;100.00
74552;BME280;63025;55.472;38.432;2023-07-29T01:41:04;99078.34;;;17.12;100.00
74552;BME280;63025;55.472;38.432;2023-07-29T01:43:32;99095.47;;;17.12;100.00
74552;BME280;63025;55.472;38.432;2023-07-29T01:45:58;99095.69;;;17.16;100.00
74552;BME280;63025;55.472;38.432;2023-07-29T01:48:25;99089.72;;;17.19;100.00
74552;BME280;63025;55.472;38.432;2023-07-29T01:50:53;99088.09;;;17.18;100.00
74552;BME280;63025;55.472;38.432;2023-07-29T01:53:19;99113.91;;;17.15;100.00
74552;BME280;63025;55.472;38.432;2023-07-29T01:55:44;99136.16;;;17.17;100.00
74552;BME280;63025;55.472;38.432;2023-07-29T01:58:11;99145.41;;;17.16;100.00
74552;BME280;63025;55.472;38.432;2023-07-29T02:00:38;99183.94;;;17.13;100.00
74552;BME280;63025;55.472;38.432;2023-07-29T02:03:04;99203.22;;;17.17;100.00
74552;BME280;63025;55.472;38.432;2023-07-29T02:05:29;99218.44;;;17.08;100.00
74552;BME280;63025;55.472;38.432;2023-07-29T02:07:55;99223.34;;;17.06;100.00
74552;BME280;63025;55.472;38.432;2023-07-29T02:10:21;99216.81;;;17.07;100.00
74552;BME280;63025;55.472;38.432;2023-07-29T02:12:47;99224.97;;;17.12;100.00
74552;BME280;63025;55.472;38.432;2023-07-29T02:15:13;99223.88;;;17.18;100.00
74552;BME280;63025;55.472;38.432;2023-07-29T02:17:41;99216.28;;;17.20;100.00
74552;BME280;63025;55.472;38.432;2023-07-29T02:20:07;99189.38;;;17.18;100.00
74552;BME280;63025;55.472;38.432;2023-07-29T02:22:34;99186.13;;;17.21;100.00
74552;BME280;63025;55.472;38.432;2023-07-29T02:25:00;99168.47;;;17.19;100.00
74552;BME280;63025;55.472;38.432;2023-07-29T02:27:26;99138.34;;;17.15;100.00
74552;BME280;63025;55.472;38.432;2023-07-29T02:29:54;99137.53;;;17.10;100.00
74552;BME280;63025;55.472;38.432;2023-07-29T02:32:20;99129.13;;;17.11;100.00
74552;BME280;63025;55.472;38.432;2023-07-29T02:34:46;99125.59;;;17.11;100.00
74552;BME280;63025;55.472;38.432;2023-07-29T02:37:12;99132.91;;;17.15;100.00
74552;BME280;63025;55.472;38.432;2023-07-29T02:39:38;99132.09;;;17.15;100.00
74552;BME280;63025;55.472;38.432;2023-07-29T02:42:04;99129.91;;;17.17;100.00
74552;BME280;63025;55.472;38.432;2023-07-29T02:44:30;99133.16;;;17.14;100.00
74552;BME280;63025;55.472;38.432;2023-07-29T02:46:55;99130.19;;;17.15;100.00
74552;BME280;63025;55.472;38.432;2023-07-29T02:49:22;99134.53;;;17.16;100.00
74552;BME280;63025;55.472;38.432;2023-07-29T02:51:49;99124.75;;;17.15;100.00
74552;BME280;63025;55.472;38.432;2023-07-29T02:54:15;99117.44;;;17.16;100.00
74552;BME280;63025;55.472;38.432;2023-07-29T02:56:41;99116.59;;;17.15;100.00
74552;BME280;63025;55.472;38.432;2023-07-29T02:59:06;99110.13;;;17.11;100.00
74552;BME280;63025;55.472;38.432;2023-07-29T03:01:32;99104.41;;;17.08;100.00
74552;BME280;63025;55.472;38.432;2023-07-29T03:03:58;99107.13;;;17.03;100.00
74552;BME280;63025;55.472;38.432;2023-07-29T03:06:24;99101.44;;;17.04;100.00
74552;BME280;63025;55.472;38.432;2023-07-29T03:08:50;99091.41;;;17.00;100.00
74552;BME280;63025;55.472;38.432;2023-07-29T03:11:16;99082.19;;;17.01;100.00
74552;BME280;63025;55.472;38.432;2023-07-29T03:13:43;99071.31;;;17.01;100.00
74552;BME280;63025;55.472;38.432;2023-07-29T03:16:14;99068.59;;;16.96;100.00
74552;BME280;63025;55.472;38.432;2023-07-29T03:18:44;99064.81;;;16.92;100.00
74552;BME280;63025;55.472;38.432;2023-07-29T03:21:10;99069.16;;;16.93;100.00
74552;BME280;63025;55.472;38.432;2023-07-29T03:23:37;99071.34;;;16.91;100.00
74552;BME280;63025;55.472;38.432;2023-07-29T03:26:03;99068.09;;;16.88;100.00
74552;BME280;63025;55.472;38.432;2023-07-29T03:28:37;99066.72;;;16.91;100.00
74552;BME280;63025;55.472;38.432;2023-07-29T03:31:03;99069.72;;;16.90;100.00
74552;BME280;63025;55.472;38.432;2023-07-29T03:33:29;99058.31;;;16.87;100.00
74552;BME280;63025;55.472;38.432;2023-07-29T03:35:55;99057.50;;;16.87;100.00
74552;BME280;63025;55.472;38.432;2023-07-29T03:38:21;99061.56;;;16.84;100.00
74552;BME280;63025;55.472;38.432;2023-07-29T03:40:47;99066.19;;;16.84;100.00
74552;BME280;63025;55.472;38.432;2023-07-29T03:43:13;99075.97;;;16.90;100.00
74552;BME280;63025;55.472;38.432;2023-07-29T03:45:40;99075.38;;;16.93;100.00
74552;BME280;63025;55.472;38.432;2023-07-29T03:48:06;99070.50;;;16.95;100.00
74552;BME280;63025;55.472;38.432;2023-07-29T03:50:33;99072.41;;;17.00;100.00
74552;BME280;63025;55.472;38.432;2023-07-29T03:53:01;99067.50;;;17.07;100.00
74552;BME280;63025;55.472;38.432;2023-07-29T03:55:27;99065.03;;;17.05;100.00
74552;BME280;63025;55.472;38.432;2023-07-29T03:57:56;99064.22;;;17.05;100.00
74552;BME280;63025;55.472;38.432;2023-07-29T04:00:22;99051.47;;;17.05;100.00
74552;BME280;63025;55.472;38.432;2023-07-29T04:02:48;99044.69;;;17.08;100.00
74552;BME280;63025;55.472;38.432;2023-07-29T04:05:14;99026.75;;;17.07;100.00
74552;BME280;63025;55.472;38.432;2023-07-29T04:07:40;99011.28;;;17.07;100.00
74552;BME280;63025;55.472;38.432;2023-07-29T04:10:07;99002.38;;;17.02;100.00
74552;BME280;63025;55.472;38.432;2023-07-29T04:12:33;98982.25;;;17.03;100.00
74552;BME280;63025;55.472;38.432;2023-07-29T04:14:59;98976.81;;;17.03;100.00
74552;BME280;63025;55.472;38.432;2023-07-29T04:17:25;98958.94;;;17.02;100.00
74552;BME280;63025;55.472;38.432;2023-07-29T04:19:50;98950.25;;;17.00;100.00
74552;BME280;63025;55.472;38.432;2023-07-29T04:22:18;98943.19;;;16.99;100.00
74552;BME280;63025;55.472;38.432;2023-07-29T04:24:43;98929.06;;;17.02;100.00
74552;BME280;63025;55.472;38.432;2023-07-29T04:27:09;98931.25;;;17.00;100.00
74552;BME280;63025;55.472;38.432;2023-07-29T04:29:36;98929.88;;;16.97;100.00
74552;BME280;63025;55.472;38.432;2023-07-29T04:32:02;98944.22;;;17.03;100.00
74552;BME280;63025;55.472;38.432;2023-07-29T04:34:29;98954.81;;;17.09;100.00
74552;BME280;63025;55.472;38.432;2023-07-29T04:36:54;98960.50;;;17.13;100.00
74552;BME280;63025;55.472;38.432;2023-07-29T04:39:20;98971.59;;;17.16;100.00
74552;BME280;63025;55.472;38.432;2023-07-29T04:41:46;98972.41;;;17.17;100.00
74552;BME280;63025;55.472;38.432;2023-07-29T04:44:14;98977.84;;;17.17;100.00
74552;BME280;63025;55.472;38.432;2023-07-29T04:46:40;98978.34;;;17.24;100.00
74552;BME280;63025;55.472;38.432;2023-07-29T04:49:06;98991.41;;;17.22;100.00
74552;BME280;63025;55.472;38.432;2023-07-29T04:51:32;98999.53;;;17.27;100.00
74552;BME280;63025;55.472;38.432;2023-07-29T04:53:58;99000.59;;;17.31;100.00
74552;BME280;63025;55.472;38.432;2023-07-29T04:56:24;99011.75;;;17.30;100.00
74552;BME280;63025;55.472;38.432;2023-07-29T04:58:51;99014.97;;;17.37;100.00
74552;BME280;63025;55.472;38.432;2023-07-29T05:01:16;99017.94;;;17.40;100.00
74552;BME280;63025;55.472;38.432;2023-07-29T05:03:42;99022.25;;;17.51;100.00
74552;BME280;63025;55.472;38.432;2023-07-29T05:06:09;99037.13;;;17.59;100.00
74552;BME280;63025;55.472;38.432;2023-07-29T05:08:35;99037.97;;;17.65;100.00
74552;BME280;63025;55.472;38.432;2023-07-29T05:11:00;99053.69;;;17.68;100.00
74552;BME280;63025;55.472;38.432;2023-07-29T05:13:26;99050.69;;;17.69;100.00
74552;BME280;63025;55.472;38.432;2023-07-29T05:15:52;99053.97;;;17.71;100.00
74552;BME280;63025;55.472;38.432;2023-07-29T05:18:19;99060.22;;;17.72;100.00
74552;BME280;63025;55.472;38.432;2023-07-29T05:20:45;99055.59;;;17.72;100.00
74552;BME280;63025;55.472;38.432;2023-07-29T05:23:12;99045.00;;;17.71;100.00
74552;BME280;63025;55.472;38.432;2023-07-29T05:25:38;99049.06;;;17.73;100.00
74552;BME280;63025;55.472;38.432;2023-07-29T05:28:04;99046.06;;;17.75;100.00
74552;BME280;63025;55.472;38.432;2023-07-29T05:30:30;99046.56;;;17.77;100.00
74552;BME280;63025;55.472;38.432;2023-07-29T05:33:04;99039.00;;;17.74;100.00
74552;BME280;63025;55.472;38.432;2023-07-29T05:35:30;99032.22;;;17.71;100.00
74552;BME280;63025;55.472;38.432;2023-07-29T05:37:56;99040.09;;;17.73;100.00
74552;BME280;63025;55.472;38.432;2023-07-29T05:40:22;99040.03;;;17.78;100.00
74552;BME280;63025;55.472;38.432;2023-07-29T05:42:48;99027.28;;;17.78;100.00
74552;BME280;63025;55.472;38.432;2023-07-29T05:45:14;99020.75;;;17.79;100.00
74552;BME280;63025;55.472;38.432;2023-07-29T05:47:40;99036.22;;;17.84;100.00
74552;BME280;63025;55.472;38.432;2023-07-29T05:50:06;99034.00;;;17.86;100.00
74552;BME280;63025;55.472;38.432;2023-07-29T05:52:32;99036.44;;;17.92;100.00
74552;BME280;63025;55.472;38.432;2023-07-29T05:54:58;99024.13;;;18.00;100.00
74552;BME280;63025;55.472;38.432;2023-07-29T05:57:24;99024.94;;;18.06;100.00
74552;BME280;63025;55.472;38.432;2023-07-29T05:59:50;99028.38;;;18.16;100.00
74552;BME280;63025;55.472;38.432;2023-07-29T06:02:16;99031.59;;;18.23;100.00
74552;BME280;63025;55.472;38.432;2023-07-29T06:04:42;99037.50;;;18.30;100.00
74552;BME280;63025;55.472;38.432;2023-07-29T06:07:08;99028.78;;;18.33;100.00
74552;BME280;63025;55.472;38.432;2023-07-29T06:09:34;99040.13;;;18.41;100.00
74552;BME280;63025;55.472;38.432;2023-07-29T06:12:00;99039.50;;;18.49;100.00
74552;BME280;63025;55.472;38.432;2023-07-29T06:14:27;99045.97;;;18.63;100.00
74552;BME280;63025;55.472;38.432;2023-07-29T06:16:53;99060.66;;;18.62;100.00
74552;BME280;63025;55.472;38.432;2023-07-29T06:19:20;99062.28;;;18.63;100.00
74552;BME280;63025;55.472;38.432;2023-07-29T06:21:46;99068.84;;;18.57;100.00
74552;BME280;63025;55.472;38.432;2023-07-29T06:24:12;99079.25;;;18.50;100.00
74552;BME280;63025;55.472;38.432;2023-07-29T06:26:38;99075.19;;;18.47;100.00
74552;BME280;63025;55.472;38.432;2023-07-29T06:29:04;99064.53;;;18.51;100.00
74552;BME280;63025;55.472;38.432;2023-07-29T06:31:30;99068.72;;;18.38;100.00
74552;BME280;63025;55.472;38.432;2023-07-29T06:33:58;99072.78;;;18.41;100.00
74552;BME280;63025;55.472;38.432;2023-07-29T06:36:24;99069.25;;;18.40;100.00
74552;BME280;63025;55.472;38.432;2023-07-29T06:38:50;99065.72;;;18.40;100.00
74552;BME280;63025;55.472;38.432;2023-07-29T06:41:16;99066.31;;;18.37;100.00
74552;BME280;63025;55.472;38.432;2023-07-29T06:43:42;99062.53;;;18.32;100.00
74552;BME280;63025;55.472;38.432;2023-07-29T06:46:08;99064.22;;;18.23;100.00
74552;BME280;63025;55.472;38.432;2023-07-29T06:48:34;99059.88;;;18.22;100.00
74552;BME280;63025;55.472;38.432;2023-07-29T06:51:00;99059.34;;;18.20;100.00
74552;BME280;63025;55.472;38.432;2023-07-29T06:53:28;99058.25;;;18.21;100.00
74552;BME280;63025;55.472;38.432;2023-07-29T06:55:54;99054.44;;;18.22;100.00
74552;BME280;63025;55.472;38.432;2023-07-29T06:58:21;99060.94;;;18.26;100.00
74552;BME280;63025;55.472;38.432;2023-07-29T07:00:47;99067.50;;;18.20;100.00
74552;BME280;63025;55.472;38.432;2023-07-29T07:03:12;99069.66;;;18.23;100.00
74552;BME280;63025;55.472;38.432;2023-07-29T07:05:38;99076.53;;;18.16;100.00
74552;BME280;63025;55.472;38.432;2023-07-29T07:08:04;99071.66;;;18.08;100.00
74552;BME280;63025;55.472;38.432;2023-07-29T07:10:29;99068.09;;;18.12;100.00
74552;BME280;63025;55.472;38.432;2023-07-29T07:12:55;99070.81;;;18.12;100.00
74552;BME280;63025;55.472;38.432;2023-07-29T07:15:24;99072.75;;;18.07;100.00
74552;BME280;63025;55.472;38.432;2023-07-29T07:17:51;99074.22;;;17.94;100.00
74552;BME280;63025;55.472;38.432;2023-07-29T07:20:17;99074.50;;;17.92;100.00
74552;BME280;63025;55.472;38.432;2023-07-29T07:22:42;99074.78;;;17.91;100.00
74552;BME280;63025;55.472;38.432;2023-07-29T07:25:08;99073.41;;;17.88;100.00
74552;BME280;63025;55.472;38.432;2023-07-29T07:27:34;99070.97;;;17.92;100.00
74552;BME280;63025;55.472;38.432;2023-07-29T07:30:00;99076.69;;;17.90;100.00
74552;BME280;63025;55.472;38.432;2023-07-29T07:32:27;99075.09;;;17.84;100.00
74552;BME280;63025;55.472;38.432;2023-07-29T07:34:53;99080.81;;;17.83;100.00
74552;BME280;63025;55.472;38.432;2023-07-29T07:37:19;99078.63;;;17.85;100.00
74552;BME280;63025;55.472;38.432;2023-07-29T07:39:45;99076.72;;;17.80;100.00
74552;BME280;63025;55.472;38.432;2023-07-29T07:42:11;99075.91;;;17.85;100.00
74552;BME280;63025;55.472;38.432;2023-07-29T07:44:36;99077.50;;;17.86;100.00
74552;BME280;63025;55.472;38.432;2023-07-29T07:47:02;99077.81;;;17.84;100.00
74552;BME280;63025;55.472;38.432;2023-07-29T07:49:28;99076.94;;;17.89;100.00
74552;BME280;63025;55.472;38.432;2023-07-29T07:51:54;99078.56;;;17.95;100.00
74552;BME280;63025;55.472;38.432;2023-07-29T07:54:20;99086.75;;;17.90;100.00
74552;BME280;63025;55.472;38.432;2023-07-29T07:56:46;99085.66;;;17.91;100.00
74552;BME280;63025;55.472;38.432;2023-07-29T07:59:11;99088.03;;;17.97;100.00
74552;BME280;63025;55.472;38.432;2023-07-29T08:01:38;99097.00;;;17.98;100.00
74552;BME280;63025;55.472;38.432;2023-07-29T08:04:05;99094.84;;;18.00;100.00
74552;BME280;63025;55.472;38.432;2023-07-29T08:06:31;99098.09;;;17.97;100.00
74552;BME280;63025;55.472;38.432;2023-07-29T08:08:57;99094.06;;;17.94;100.00
74552;BME280;63025;55.472;38.432;2023-07-29T08:11:23;99096.78;;;17.94;100.00
74552;BME280;63025;55.472;38.432;2023-07-29T08:13:49;99093.81;;;17.86;100.00
74552;BME280;63025;55.472;38.432;2023-07-29T08:16:14;99099.03;;;17.82;100.00
74552;BME280;63025;55.472;38.432;2023-07-29T08:18:40;99089.50;;;17.80;100.00
74552;BME280;63025;55.472;38.432;2023-07-29T08:21:06;99095.47;;;17.82;100.00
74552;BME280;63025;55.472;38.432;2023-07-29T08:23:34;99098.16;;;17.87;100.00
74552;BME280;63025;55.472;38.432;2023-07-29T08:26:02;99092.22;;;17.85;100.00
74552;BME280;63025;55.472;38.432;2023-07-29T08:28:33;99102.78;;;17.86;100.00
74552;BME280;63025;55.472;38.432;2023-07-29T08:30:59;99094.13;;;17.79;100.00
74552;BME280;63025;55.472;38.432;2023-07-29T08:33:25;99105.81;;;17.80;100.00
74552;BME280;63025;55.472;38.432;2023-07-29T08:35:51;99107.16;;;17.82;100.00
74552;BME280;63025;55.472;38.432;2023-07-29T08:38:17;99104.69;;;17.86;100.00
74552;BME280;63025;55.472;38.432;2023-07-29T08:40:57;99111.25;;;17.80;100.00
74552;BME280;63025;55.472;38.432;2023-07-29T08:43:31;99109.91;;;17.77;100.00
74552;BME280;63025;55.472;38.432;2023-07-29T08:45:58;99111.31;;;17.70;100.00
74552;BME280;63025;55.472;38.432;2023-07-29T08:48:43;99111.03;;;17.71;100.00
74552;BME280;63025;55.472;38.432;2023-07-29T08:51:10;99113.47;;;17.68;100.00
74552;BME280;63025;55.472;38.432;2023-07-29T08:53:37;99114.06;;;17.65;100.00
74552;BME280;63025;55.472;38.432;2023-07-29T08:56:03;99106.69;;;17.55;100.00
74552;BME280;63025;55.472;38.432;2023-07-29T08:58:31;99107.00;;;17.64;100.00
74552;BME280;63025;55.472;38.432;2023-07-29T09:00:57;99108.59;;;17.70;100.00
74552;BME280;63025;55.472;38.432;2023-07-29T09:03:23;99112.13;;;17.75;100.00
74552;BME280;63025;55.472;38.432;2023-07-29T09:05:50;99115.63;;;17.76;100.00
74552;BME280;63025;55.472;38.432;2023-07-29T09:08:16;99116.19;;;17.73;100.00
74552;BME280;63025;55.472;38.432;2023-07-29T09:10:43;99116.16;;;17.83;100.00
74552;BME280;63025;55.472;38.432;2023-07-29T09:13:09;99119.41;;;17.85;100.00
74552;BME280;63025;55.472;38.432;2023-07-29T09:15:35;99112.34;;;17.79;100.00
74552;BME280;63025;55.472;38.432;2023-07-29T09:18:15;99112.34;;;17.84;100.00
74552;BME280;63025;55.472;38.432;2023-07-29T09:20:41;99118.28;;;17.86;100.00
74552;BME280;63025;55.472;38.432;2023-07-29T09:23:09;99121.81;;;17.86;100.00
74552;BME280;63025;55.472;38.432;2023-07-29T09:25:38;99117.47;;;17.90;100.00
74552;BME280;63025;55.472;38.432;2023-07-29T09:28:15;99119.91;;;17.92;100.00
74552;BME280;63025;55.472;38.432;2023-07-29T09:30:44;99113.59;;;17.96;100.00
74552;BME280;63025;55.472;38.432;2023-07-29T09:33:10;99121.53;;;17.93;100.00
74552;BME280;63025;55.472;38.432;2023-07-29T09:35:37;99122.63;;;17.92;100.00
74552;BME280;63025;55.472;38.432;2023-07-29T09:38:06;99119.31;;;18.00;100.00
74552;BME280;63025;55.472;38.432;2023-07-29T09:40:36;99124.72;;;18.05;100.00
74552;BME280;63025;55.472;38.432;2023-07-29T09:43:03;99119.25;;;18.10;100.00
74552;BME280;63025;55.472;38.432;2023-07-29T09:45:30;99120.34;;;18.09;100.00
74552;BME280;63025;55.472;38.432;2023-07-29T09:47:58;99116.53;;;18.10;100.00
74552;BME280;63025;55.472;38.432;2023-07-29T09:50:25;99107.34;;;18.01;100.00
74552;BME280;63025;55.472;38.432;2023-07-29T09:52:52;99115.47;;;18.06;100.00
74552;BME280;63025;55.472;38.432;2023-07-29T09:55:18;99114.09;;;18.09;100.00
74552;BME280;63025;55.472;38.432;2023-07-29T09:57:45;99107.94;;;17.93;100.00
74552;BME280;63025;55.472;38.432;2023-07-29T10:00:12;99094.34;;;17.93;100.00
74552;BME280;63025;55.472;38.432;2023-07-29T10:02:42;99097.00;;;18.03;100.00
74552;BME280;63025;55.472;38.432;2023-07-29T10:05:09;99090.75;;;18.03;100.00
74552;BME280;63025;55.472;38.432;2023-07-29T10:07:39;99086.66;;;18.05;100.00
74552;BME280;63025;55.472;38.432;2023-07-29T10:10:07;99093.19;;;18.04;100.00
74552;BME280;63025;55.472;38.432;2023-07-29T10:12:35;99089.94;;;18.02;100.00
74552;BME280;63025;55.472;38.432;2023-07-29T10:15:03;99100.13;;;18.20;100.00
74552;BME280;63025;55.472;38.432;2023-07-29T10:17:35;99105.03;;;18.23;100.00
74552;BME280;63025;55.472;38.432;2023-07-29T10:20:03;99115.41;;;18.16;100.00
74552;BME280;63025;55.472;38.432;2023-07-29T10:22:35;99111.28;;;18.19;100.00
74552;BME280;63025;55.472;38.432;2023-07-29T10:25:08;99135.28;;;18.17;100.00
74552;BME280;63025;55.472;38.432;2023-07-29T10:30:12;99143.78;;;18.00;100.00
74552;BME280;63025;55.472;38.432;2023-07-29T10:32:42;99142.69;;;18.06;100.00
74552;BME280;63025;55.472;38.432;2023-07-29T10:35:12;99151.59;;;18.12;100.00
74552;BME280;63025;55.472;38.432;2023-07-29T10:37:38;99154.53;;;18.20;100.00
74552;BME280;63025;55.472;38.432;2023-07-29T10:40:09;99152.41;;;18.12;100.00
74552;BME280;63025;55.472;38.432;2023-07-29T10:42:37;99150.88;;;17.96;100.00
74552;BME280;63025;55.472;38.432;2023-07-29T10:45:21;99157.91;;;18.02;100.00
74552;BME280;63025;55.472;38.432;2023-07-29T10:47:47;99156.84;;;17.98;100.00
74552;BME280;63025;55.472;38.432;2023-07-29T10:50:21;99161.22;;;17.94;100.00
74552;BME280;63025;55.472;38.432;2023-07-29T10:52:51;99167.72;;;17.98;100.00
74552;BME280;63025;55.472;38.432;2023-07-29T10:55:33;99168.84;;;17.92;100.00
74552;BME280;63025;55.472;38.432;2023-07-29T10:58:12;99165.31;;;17.86;100.00
74552;BME280;63025;55.472;38.432;2023-07-29T11:00:42;99174.31;;;17.82;100.00
74552;BME280;63025;55.472;38.432;2023-07-29T11:03:09;99178.69;;;17.73;100.00
74552;BME280;63025;55.472;38.432;2023-07-29T11:05:53;99174.63;;;17.65;100.00
74552;BME280;63025;55.472;38.432;2023-07-29T11:11:03;99179.28;;;17.54;100.00
74552;BME280;63025;55.472;38.432;2023-07-29T11:13:31;99186.66;;;17.44;100.00
74552;BME280;63025;55.472;38.432;2023-07-29T11:15:58;99193.44;;;17.41;100.00
74552;BME280;63025;55.472;38.432;2023-07-29T11:18:32;99199.94;;;17.35;100.00
74552;BME280;63025;55.472;38.432;2023-07-29T11:21:00;99196.97;;;17.32;100.00
74552;BME280;63025;55.472;38.432;2023-07-29T11:23:34;99194.28;;;17.21;100.00
74552;BME280;63025;55.472;38.432;2023-07-29T11:26:01;99203.78;;;17.19;100.00
74552;BME280;63025;55.472;38.432;2023-07-29T11:28:28;99194.56;;;17.10;100.00
74552;BME280;63025;55.472;38.432;2023-07-29T11:30:57;99195.09;;;17.07;100.00
74552;BME280;63025;55.472;38.432;2023-07-29T11:33:25;99192.13;;;17.08;100.00
74552;BME280;63025;55.472;38.432;2023-07-29T11:35:51;99198.34;;;17.09;100.00
74552;BME280;63025;55.472;38.432;2023-07-29T11:38:18;99182.06;;;17.09;100.00
74552;BME280;63025;55.472;38.432;2023-07-29T11:41:01;99182.06;;;17.09;100.00
74552;BME280;63025;55.472;38.432;2023-07-29T11:43:35;99186.41;;;17.10;100.00
74552;BME280;63025;55.472;38.432;2023-07-29T11:46:01;99186.66;;;17.13;100.00
74552;BME280;63025;55.472;38.432;2023-07-29T11:48:32;99185.31;;;17.16;100.00
74552;BME280;63025;55.472;38.432;2023-07-29T11:50:58;99190.50;;;17.12;100.00
74552;BME280;63025;55.472;38.432;2023-07-29T11:53:30;99189.41;;;17.08;100.00
74552;BME280;63025;55.472;38.432;2023-07-29T11:55:57;99194.56;;;17.10;100.00
74552;BME280;63025;55.472;38.432;2023-07-29T11:58:23;99189.66;;;17.07;100.00
74552;BME280;63025;55.472;38.432;2023-07-29T12:00:49;99198.91;;;17.01;100.00
74552;BME280;63025;55.472;38.432;2023-07-29T12:03:16;99203.25;;;17.02;100.00
74552;BME280;63025;55.472;38.432;2023-07-29T12:05:43;99202.44;;;17.01;100.00
74552;BME280;63025;55.472;38.432;2023-07-29T12:08:10;99199.97;;;16.95;100.00
74552;BME280;63025;55.472;38.432;2023-07-29T12:10:36;99191.84;;;16.84;100.00
74552;BME280;63025;55.472;38.432;2023-07-29T12:13:02;99194.56;;;16.79;100.00
74552;BME280;63025;55.472;38.432;2023-07-29T12:15:29;99186.16;;;16.81;100.00
74552;BME280;63025;55.472;38.432;2023-07-29T12:17:56;99189.13;;;16.79;100.00
74552;BME280;63025;55.472;38.432;2023-07-29T12:20:26;99188.84;;;16.76;100.00
74552;BME280;63025;55.472;38.432;2023-07-29T12:22:56;99189.69;;;16.71;100.00
74552;BME280;63025;55.472;38.432;2023-07-29T12:25:22;99191.59;;;16.71;100.00
74552;BME280;63025;55.472;38.432;2023-07-29T12:27:48;99187.22;;;16.70;100.00
74552;BME280;63025;55.472;38.432;2023-07-29T12:30:13;99189.13;;;16.64;100.00
74552;BME280;63025;55.472;38.432;2023-07-29T12:32:44;99178.81;;;16.66;100.00
74552;BME280;63025;55.472;38.432;2023-07-29T12:35:12;99181.78;;;16.65;100.00
74552;BME280;63025;55.472;38.432;2023-07-29T12:37:38;99179.34;;;16.63;100.00
74552;BME280;63025;55.472;38.432;2023-07-29T12:40:20;99180.16;;;16.64;100.00
74552;BME280;63025;55.472;38.432;2023-07-29T12:42:50;99176.03;;;16.61;100.00
74552;BME280;63025;55.472;38.432;2023-07-29T12:45:22;99171.47;;;16.62;100.00
74552;BME280;63025;55.472;38.432;2023-07-29T12:47:52;99172.28;;;16.62;100.00
74552;BME280;63025;55.472;38.432;2023-07-29T12:50:19;99172.28;;;16.62;100.00
74552;BME280;63025;55.472;38.432;2023-07-29T12:52:48;99165.50;;;16.65;100.00